Waco, Kentucky
Current Conditions -  °F | °C
As of 1:35 AM on Monday 26 Jan 2015 (Local Time) from KI39 Reporting Station
Overcast Overcast  
Wind Chill: 36°   Ceiling: 500
Heat Index: 41°   Visibility: 7mi
Dew Point: 39°   Wind: 7mph
Humidity: 93%   Direction: 270°W
Pressure: 29.63"   Gusts: NA
Location:  37.74°N, 84.14°W
Report Text: KI39 260635Z AUTO 27006KT 7SM BKN005 OVC019 05/04 A2963 RMK AO2
Loading
Personal Weather Stations






























Interactive Weather Map New forecast layout! Learn more

10-Day Weather Forecast

Advertisements
Track Severe Weather on mobile